Time;durP1;ratioP1;P1;durP2;ratioP2;P2;SDS_P1;SDS_P2;PMS_P1;PMS_P2;Temp;Humidity;BMP_temperature;BMP_pressure;BME280_temperature;BME280_humidity;BME280_pressure;Samples;Min_cycle;Max_cycle;Signal;HPM_P1;HPM_P2
2023/10/06 00:01:42;;;;;;;5.27;3.10;;;;;;;;;;5017666;28;20201;-66
2023/10/06 00:04:12;;;;;;;7.40;4.10;;;;;;;;;;5017348;28;20287;-66
2023/10/06 00:06:39;;;;;;;4.60;3.50;;;;;;;;;;5016507;28;20750;-65
2023/10/06 00:09:09;;;;;;;5.00;3.10;;;;;;;;;;5015828;28;20200;-66
2023/10/06 00:11:40;;;;;;;4.87;3.43;;;;;;;;;;5018012;28;20203;-65
2023/10/06 00:14:09;;;;;;;4.43;3.57;;;;;;;;;;5020336;28;20211;-65
2023/10/06 00:16:39;;;;;;;6.23;3.27;;;;;;;;;;5015738;28;20234;-67
2023/10/06 00:19:15;;;;;;;5.00;3.13;;;;;;;;;;5018760;28;20205;-66
2023/10/06 00:21:47;;;;;;;5.23;3.47;;;;;;;;;;5021394;28;20196;-66
2023/10/06 00:24:15;;;;;;;4.97;3.60;;;;;;;;;;5017432;28;20224;-65
2023/10/06 00:26:44;;;;;;;4.27;3.30;;;;;;;;;;5019624;28;20204;-65
2023/10/06 00:29:21;;;;;;;4.93;3.57;;;;;;;;;;5017718;28;20211;-67
2023/10/06 00:31:48;;;;;;;5.17;3.40;;;;;;;;;;5018176;28;20216;-65
2023/10/06 00:34:19;;;;;;;6.80;3.70;;;;;;;;;;5018155;28;20213;-66
2023/10/06 00:36:51;;;;;;;5.77;3.53;;;;;;;;;;5021779;28;20204;-66
2023/10/06 00:39:22;;;;;;;7.50;3.57;;;;;;;;;;5021386;28;20196;-67
2023/10/06 00:41:55;;;;;;;6.40;4.10;;;;;;;;;;5023849;28;20295;-66
2023/10/06 00:44:23;;;;;;;5.60;3.63;;;;;;;;;;5023156;28;20228;-66
2023/10/06 00:46:50;;;;;;;5.53;3.60;;;;;;;;;;5024246;28;20223;-65
2023/10/06 00:49:18;;;;;;;4.60;3.53;;;;;;;;;;5020907;28;20243;-66
2023/10/06 00:51:47;;;;;;;4.40;3.33;;;;;;;;;;5024853;28;20213;-65
2023/10/06 00:54:14;;;;;;;5.00;3.67;;;;;;;;;;5021597;28;20212;-66
2023/10/06 00:56:42;;;;;;;5.83;3.80;;;;;;;;;;5024061;28;20218;-66
2023/10/06 00:59:12;;;;;;;4.60;3.70;;;;;;;;;;5020558;28;20200;-65
2023/10/06 01:01:40;;;;;;;6.13;3.80;;;;;;;;;;5017865;28;20200;-66
2023/10/06 01:04:11;;;;;;;5.47;3.50;;;;;;;;;;5017315;28;20555;-65
2023/10/06 01:06:40;;;;;;;4.80;3.80;;;;;;;;;;5017533;28;20248;-66
2023/10/06 01:09:14;;;;;;;4.90;3.50;;;;;;;;;;5020950;28;20240;-66
2023/10/06 01:11:43;;;;;;;4.87;3.70;;;;;;;;;;5015734;28;20204;-66
2023/10/06 01:14:14;;;;;;;4.30;3.70;;;;;;;;;;5018779;28;20231;-67
2023/10/06 01:16:43;;;;;;;4.47;3.50;;;;;;;;;;5014170;28;20204;-66
2023/10/06 01:19:25;;;;;;;6.63;3.90;;;;;;;;;;5013083;28;20216;-66
2023/10/06 01:21:53;;;;;;;4.50;3.70;;;;;;;;;;5017276;28;20227;-66
2023/10/06 01:24:25;;;;;;;4.47;3.70;;;;;;;;;;5016180;28;20239;-65
2023/10/06 01:26:53;;;;;;;5.43;3.83;;;;;;;;;;5017526;28;20218;-66
2023/10/06 01:29:22;;;;;;;4.33;3.23;;;;;;;;;;5016140;28;20244;-66
2023/10/06 01:31:50;;;;;;;5.50;3.53;;;;;;;;;;5019636;28;20200;-66
2023/10/06 01:34:18;;;;;;;4.87;3.43;;;;;;;;;;5016065;28;20204;-66
2023/10/06 01:36:51;;;;;;;4.03;3.43;;;;;;;;;;5016998;28;20216;-67
2023/10/06 01:39:22;;;;;;;4.90;3.20;;;;;;;;;;5019688;28;20208;-65
2023/10/06 01:41:51;;;;;;;4.43;3.20;;;;;;;;;;5020324;28;20228;-67
2023/10/06 01:44:18;;;;;;;3.53;3.23;;;;;;;;;;5020733;28;20225;-67
2023/10/06 01:46:53;;;;;;;4.17;3.50;;;;;;;;;;5017659;28;20206;-66
2023/10/06 01:49:21;;;;;;;4.70;3.53;;;;;;;;;;5020868;28;20236;-66
2023/10/06 01:51:50;;;;;;;4.93;3.20;;;;;;;;;;5020579;28;20196;-66
2023/10/06 01:54:18;;;;;;;4.97;3.30;;;;;;;;;;5018411;28;21421;-66
2023/10/06 01:56:46;;;;;;;4.20;3.40;;;;;;;;;;5018270;28;20205;-66
2023/10/06 01:59:15;;;;;;;3.63;3.33;;;;;;;;;;5020320;28;20216;-67
2023/10/06 02:01:42;;;;;;;3.63;3.30;;;;;;;;;;5017974;28;20200;-66
2023/10/06 02:04:11;;;;;;;5.80;2.93;;;;;;;;;;5024988;28;20246;-66
2023/10/06 02:06:38;;;;;;;4.23;3.10;;;;;;;;;;5021894;28;20205;-68
2023/10/06 02:09:09;;;;;;;4.57;3.67;;;;;;;;;;5017622;28;20208;-67
2023/10/06 02:11:41;;;;;;;4.70;3.30;;;;;;;;;;5013840;28;20215;-73
2023/10/06 02:14:10;;;;;;;3.83;3.10;;;;;;;;;;5017839;28;20211;-71
2023/10/06 02:16:38;;;;;;;3.80;3.20;;;;;;;;;;5019460;28;20208;-73
2023/10/06 02:19:08;;;;;;;3.50;3.20;;;;;;;;;;5014117;28;20231;-74
2023/10/06 02:21:36;;;;;;;5.07;3.90;;;;;;;;;;5018571;28;20243;-74
2023/10/06 02:24:04;;;;;;;6.20;3.60;;;;;;;;;;5019168;28;20240;-73
2023/10/06 02:26:35;;;;;;;5.63;4.10;;;;;;;;;;5017367;28;20201;-74
2023/10/06 02:29:03;;;;;;;7.93;5.00;;;;;;;;;;5017288;28;20231;-73
2023/10/06 02:31:30;;;;;;;9.93;5.40;;;;;;;;;;5014711;28;20204;-73
2023/10/06 02:33:59;;;;;;;17.47;6.60;;;;;;;;;;5017484;28;20211;-72
2023/10/06 02:36:26;;;;;;;12.23;5.47;;;;;;;;;;5016923;28;20299;-74
2023/10/06 02:38:53;;;;;;;8.30;5.97;;;;;;;;;;5016440;28;20209;-73
2023/10/06 02:41:25;;;;;;;9.10;5.80;;;;;;;;;;5013226;28;20207;-75
2023/10/06 02:43:53;;;;;;;8.47;6.10;;;;;;;;;;5018702;28;20236;-73
2023/10/06 02:46:23;;;;;;;7.10;5.40;;;;;;;;;;5023536;28;20207;-74
2023/10/06 02:48:50;;;;;;;6.57;5.30;;;;;;;;;;5019735;28;20224;-73
2023/10/06 02:51:20;;;;;;;9.07;5.27;;;;;;;;;;5016001;28;20208;-74
2023/10/06 02:53:50;;;;;;;9.50;5.57;;;;;;;;;;5016726;28;20212;-73
2023/10/06 02:56:21;;;;;;;8.57;5.83;;;;;;;;;;5017337;28;20205;-73
2023/10/06 02:58:50;;;;;;;6.60;4.87;;;;;;;;;;5012162;28;20218;-73
2023/10/06 03:01:18;;;;;;;6.17;5.47;;;;;;;;;;5020557;28;20209;-73
2023/10/06 03:03:45;;;;;;;5.83;5.10;;;;;;;;;;5016310;28;20221;-74
2023/10/06 03:06:17;;;;;;;5.37;4.60;;;;;;;;;;5021517;28;20209;-74
2023/10/06 03:08:47;;;;;;;6.20;4.47;;;;;;;;;;5017205;28;20267;-74
2023/10/06 03:11:23;;;;;;;4.93;4.00;;;;;;;;;;5021718;28;20517;-73
2023/10/06 03:13:54;;;;;;;5.77;4.43;;;;;;;;;;5016630;28;20203;-74
2023/10/06 03:16:25;;;;;;;4.97;4.23;;;;;;;;;;5014052;28;20208;-72
2023/10/06 03:18:54;;;;;;;5.87;4.07;;;;;;;;;;5019831;28;20208;-74
2023/10/06 03:21:22;;;;;;;4.30;3.90;;;;;;;;;;5014322;28;20223;-72
2023/10/06 03:23:58;;;;;;;5.17;4.60;;;;;;;;;;5018499;28;20221;-72
2023/10/06 03:26:30;;;;;;;4.90;4.43;;;;;;;;;;5017897;28;20242;-73
2023/10/06 03:29:02;;;;;;;5.60;5.03;;;;;;;;;;5020114;28;20216;-73
2023/10/06 03:31:44;;;;;;;5.30;4.80;;;;;;;;;;5018757;28;20201;-74
2023/10/06 03:34:16;;;;;;;6.37;4.83;;;;;;;;;;5014457;28;20227;-74
2023/10/06 03:36:51;;;;;;;5.50;4.93;;;;;;;;;;5016080;28;20259;-74
2023/10/06 03:39:27;;;;;;;4.93;4.43;;;;;;;;;;5024570;28;20295;-73
2023/10/06 03:41:59;;;;;;;5.27;4.80;;;;;;;;;;5015030;28;20200;-74
2023/10/06 03:44:27;;;;;;;4.63;4.23;;;;;;;;;;5023636;28;20286;-71
2023/10/06 03:46:54;;;;;;;5.47;4.20;;;;;;;;;;5016732;28;20214;-72
2023/10/06 03:49:21;;;;;;;4.67;4.27;;;;;;;;;;5019980;28;20252;-74
2023/10/06 03:51:48;;;;;;;3.63;3.33;;;;;;;;;;5023641;28;20211;-74
2023/10/06 03:54:15;;;;;;;3.77;3.23;;;;;;;;;;5026060;28;20204;-74
2023/10/06 03:56:49;;;;;;;3.63;3.33;;;;;;;;;;5016340;28;20200;-74
2023/10/06 03:59:16;;;;;;;4.53;4.13;;;;;;;;;;5017752;28;20223;-74
2023/10/06 04:01:45;;;;;;;4.43;3.77;;;;;;;;;;5022656;28;20220;-73
2023/10/06 04:04:13;;;;;;;3.73;3.43;;;;;;;;;;5014376;28;20228;-73
2023/10/06 04:06:41;;;;;;;4.00;3.60;;;;;;;;;;5016366;28;20208;-74
2023/10/06 04:09:08;;;;;;;5.13;3.53;;;;;;;;;;5021368;28;20199;-74
2023/10/06 04:11:35;;;;;;;3.40;3.10;;;;;;;;;;5016377;28;20228;-74
2023/10/06 04:14:05;;;;;;;4.87;4.00;;;;;;;;;;5015793;28;20232;-71
2023/10/06 04:16:45;;;;;;;6.83;4.33;;;;;;;;;;5016453;28;20307;-74
2023/10/06 04:19:14;;;;;;;8.90;4.70;;;;;;;;;;5014661;28;20216;-74
2023/10/06 04:21:41;;;;;;;6.73;5.20;;;;;;;;;;5022814;28;20296;-72
2023/10/06 04:24:09;;;;;;;5.10;4.40;;;;;;;;;;5016796;28;20224;-74
2023/10/06 04:26:36;;;;;;;4.77;4.40;;;;;;;;;;5013097;28;20215;-71
2023/10/06 04:29:05;;;;;;;5.20;4.67;;;;;;;;;;5011699;28;20214;-74
2023/10/06 04:31:33;;;;;;;5.17;4.77;;;;;;;;;;5011963;28;20208;-66
2023/10/06 04:34:01;;;;;;;4.50;4.10;;;;;;;;;;5010298;28;20227;-67
2023/10/06 04:36:28;;;;;;;5.80;4.83;;;;;;;;;;5017240;28;20235;-68
2023/10/06 04:38:56;;;;;;;5.77;4.80;;;;;;;;;;5022917;28;20215;-67
2023/10/06 04:41:23;;;;;;;5.40;5.00;;;;;;;;;;5012925;28;20204;-67
2023/10/06 04:43:51;;;;;;;5.37;4.70;;;;;;;;;;5018811;28;20220;-67
2023/10/06 04:46:20;;;;;;;5.33;4.60;;;;;;;;;;5015034;28;20227;-67
2023/10/06 04:48:49;;;;;;;5.67;4.70;;;;;;;;;;5014604;28;20240;-66
2023/10/06 04:51:16;;;;;;;5.97;5.13;;;;;;;;;;5020271;28;20292;-66
2023/10/06 04:53:45;;;;;;;5.90;5.10;;;;;;;;;;5017207;28;20247;-67
2023/10/06 04:56:12;;;;;;;17.23;6.27;;;;;;;;;;5016214;28;20262;-67
2023/10/06 04:58:40;;;;;;;30.87;6.23;;;;;;;;;;5024273;28;20302;-67
2023/10/06 05:01:07;;;;;;;9.03;6.10;;;;;;;;;;5012141;28;20192;-67
2023/10/06 05:03:42;;;;;;;7.13;5.93;;;;;;;;;;5017152;28;20204;-67
2023/10/06 05:06:10;;;;;;;8.33;5.40;;;;;;;;;;5014720;28;20282;-66
2023/10/06 05:08:39;;;;;;;7.17;5.67;;;;;;;;;;5021129;28;20209;-67
2023/10/06 05:11:07;;;;;;;6.07;5.13;;;;;;;;;;5021068;28;20205;-66
2023/10/06 05:13:34;;;;;;;7.20;5.47;;;;;;;;;;5023069;28;20296;-66
2023/10/06 05:16:01;;;;;;;6.17;5.00;;;;;;;;;;5022476;28;20212;-67
2023/10/06 05:18:29;;;;;;;7.33;5.77;;;;;;;;;;5018240;28;20212;-66
2023/10/06 05:20:58;;;;;;;8.97;5.67;;;;;;;;;;5024269;28;20327;-67
2023/10/06 05:23:26;;;;;;;37.03;6.47;;;;;;;;;;5013967;28;20197;-67
2023/10/06 05:26:01;;;;;;;13.87;6.27;;;;;;;;;;5021382;28;20228;-67
2023/10/06 05:28:29;;;;;;;15.17;5.60;;;;;;;;;;5016248;28;20281;-67
2023/10/06 05:30:56;;;;;;;22.20;5.63;;;;;;;;;;5018716;28;20216;-67
2023/10/06 05:33:24;;;;;;;11.07;5.10;;;;;;;;;;5014325;28;20208;-66
2023/10/06 05:35:52;;;;;;;4.80;4.30;;;;;;;;;;5022602;28;20263;-67
2023/10/06 05:38:20;;;;;;;5.20;4.70;;;;;;;;;;5015686;28;20204;-67
2023/10/06 05:40:49;;;;;;;23.50;5.67;;;;;;;;;;5022668;28;20208;-66
2023/10/06 05:43:17;;;;;;;5.53;5.03;;;;;;;;;;5021839;28;20299;-74
2023/10/06 05:45:44;;;;;;;5.23;4.80;;;;;;;;;;5022372;28;20221;-72
2023/10/06 05:48:12;;;;;;;5.20;4.70;;;;;;;;;;5014481;28;20235;-72
2023/10/06 05:50:40;;;;;;;13.60;5.57;;;;;;;;;;5021546;28;20211;-73
2023/10/06 05:53:12;;;;;;;23.80;5.57;;;;;;;;;;5021474;28;20220;-74
2023/10/06 05:55:42;;;;;;;9.83;5.90;;;;;;;;;;5023946;28;20196;-74
2023/10/06 05:58:14;;;;;;;10.20;5.40;;;;;;;;;;5022185;28;20292;-74
2023/10/06 06:00:50;;;;;;;6.27;5.30;;;;;;;;;;5017975;28;20207;-75
2023/10/06 06:03:20;;;;;;;9.13;5.20;;;;;;;;;;5026159;28;20231;-74
2023/10/06 06:05:47;;;;;;;14.57;5.10;;;;;;;;;;5021207;28;20227;-74
2023/10/06 06:08:15;;;;;;;97.50;7.93;;;;;;;;;;5022351;28;20283;-74
2023/10/06 06:10:45;;;;;;;61.40;5.77;;;;;;;;;;5016765;28;20201;-75
2023/10/06 06:13:13;;;;;;;64.23;5.70;;;;;;;;;;5018714;28;20283;-74
2023/10/06 06:15:40;;;;;;;23.57;4.03;;;;;;;;;;5021193;28;20204;-73
2023/10/06 06:18:09;;;;;;;14.03;4.13;;;;;;;;;;5024996;28;20212;-74
2023/10/06 06:20:38;;;;;;;17.67;4.63;;;;;;;;;;5017599;28;20299;-74
2023/10/06 06:23:08;;;;;;;6.73;3.77;;;;;;;;;;5022519;28;20204;-74
2023/10/06 06:25:38;;;;;;;8.17;3.37;;;;;;;;;;5018649;28;20224;-74
2023/10/06 06:28:08;;;;;;;3.77;3.23;;;;;;;;;;5013868;28;20299;-74
2023/10/06 06:30:37;;;;;;;12.10;3.73;;;;;;;;;;5010776;28;20215;-74
2023/10/06 06:33:04;;;;;;;28.73;4.60;;;;;;;;;;5011473;28;20223;-74
2023/10/06 06:35:34;;;;;;;5.50;3.37;;;;;;;;;;5019700;28;20197;-74
2023/10/06 06:38:04;;;;;;;4.43;3.80;;;;;;;;;;5019021;28;20204;-73
2023/10/06 06:40:32;;;;;;;5.03;4.00;;;;;;;;;;5018355;28;20282;-74
2023/10/06 06:43:00;;;;;;;172.53;8.63;;;;;;;;;;5014467;28;20209;-72
2023/10/06 06:45:29;;;;;;;4.20;3.50;;;;;;;;;;5015127;28;20333;-74
2023/10/06 06:47:57;;;;;;;4.87;3.80;;;;;;;;;;5020888;28;20303;-74
2023/10/06 06:50:24;;;;;;;5.50;4.07;;;;;;;;;;5020387;28;20201;-74
2023/10/06 06:52:54;;;;;;;29.50;5.03;;;;;;;;;;5017668;28;20216;-67
2023/10/06 06:55:21;;;;;;;5.40;4.23;;;;;;;;;;5016255;28;20239;-68
2023/10/06 06:57:50;;;;;;;3.90;3.60;;;;;;;;;;5018219;28;20196;-66
2023/10/06 07:00:18;;;;;;;5.30;3.90;;;;;;;;;;5014869;28;20232;-67
2023/10/06 07:02:48;;;;;;;3.53;3.23;;;;;;;;;;5010165;28;20216;-68
2023/10/06 07:05:17;;;;;;;3.67;3.37;;;;;;;;;;5016910;28;20315;-67
2023/10/06 07:07:45;;;;;;;3.40;3.20;;;;;;;;;;5016937;28;20295;-67
2023/10/06 07:10:13;;;;;;;3.80;3.50;;;;;;;;;;5021785;28;20208;-67
2023/10/06 07:12:41;;;;;;;4.30;3.87;;;;;;;;;;5012498;28;20208;-67
2023/10/06 07:15:15;;;;;;;5.00;4.60;;;;;;;;;;5018286;28;20287;-67
2023/10/06 07:17:48;;;;;;;4.27;3.97;;;;;;;;;;5023070;28;20269;-67
2023/10/06 07:20:16;;;;;;;4.70;4.30;;;;;;;;;;5024089;28;20197;-67
2023/10/06 07:22:45;;;;;;;4.67;4.27;;;;;;;;;;5019956;28;20204;-66
2023/10/06 07:25:15;;;;;;;4.73;3.90;;;;;;;;;;5017253;28;20220;-67
2023/10/06 07:27:43;;;;;;;3.87;3.57;;;;;;;;;;5028867;28;20243;-66
2023/10/06 07:30:11;;;;;;;4.20;3.90;;;;;;;;;;5025648;28;20294;-66
2023/10/06 07:32:42;;;;;;;5.50;5.00;;;;;;;;;;5020920;28;20227;-66
2023/10/06 07:35:12;;;;;;;6.33;5.80;;;;;;;;;;5014013;28;20197;-66
2023/10/06 07:37:42;;;;;;;7.03;6.37;;;;;;;;;;5046901;28;20205;-66
2023/10/06 07:40:13;;;;;;;4.57;4.17;;;;;;;;;;5017330;28;20211;-66
2023/10/06 07:42:41;;;;;;;3.70;3.40;;;;;;;;;;5014769;28;20209;-67
2023/10/06 07:45:09;;;;;;;5.83;2.93;;;;;;;;;;5013149;28;20239;-67
2023/10/06 07:47:37;;;;;;;3.47;3.27;;;;;;;;;;5018413;28;20200;-67
2023/10/06 07:50:06;;;;;;;55.07;5.07;;;;;;;;;;5018847;28;20237;-66
2023/10/06 07:52:35;;;;;;;7.83;3.70;;;;;;;;;;5020282;28;20255;-67
2023/10/06 07:55:05;;;;;;;6.70;2.80;;;;;;;;;;5014977;28;20200;-67
2023/10/06 07:57:33;;;;;;;13.10;3.40;;;;;;;;;;5017582;28;20204;-67
2023/10/06 08:00:04;;;;;;;3.63;2.67;;;;;;;;;;5018734;28;20208;-66
2023/10/06 08:02:31;;;;;;;74.07;4.97;;;;;;;;;;5013788;28;20205;-73
2023/10/06 08:04:59;;;;;;;2.80;2.60;;;;;;;;;;5012631;28;20256;-73
2023/10/06 08:07:27;;;;;;;2.90;2.70;;;;;;;;;;5017004;28;20236;-73
2023/10/06 08:09:58;;;;;;;2.90;2.70;;;;;;;;;;5011297;28;20218;-73
2023/10/06 08:12:27;;;;;;;19.33;4.00;;;;;;;;;;5022621;28;20228;-73
2023/10/06 08:14:55;;;;;;;8.23;3.17;;;;;;;;;;5014319;28;20204;-72
2023/10/06 08:17:22;;;;;;;5.93;3.40;;;;;;;;;;5018972;28;20211;-73
2023/10/06 08:19:50;;;;;;;2.90;2.70;;;;;;;;;;5014881;28;20208;-72
2023/10/06 08:22:17;;;;;;;3.10;2.90;;;;;;;;;;5009436;28;20204;-73
2023/10/06 08:24:44;;;;;;;4.53;3.60;;;;;;;;;;5010479;28;20219;-73
2023/10/06 08:27:13;;;;;;;3.33;3.03;;;;;;;;;;5047471;28;20212;-73
2023/10/06 08:29:41;;;;;;;5.17;3.50;;;;;;;;;;5012531;28;20217;-72
2023/10/06 08:32:08;;;;;;;5.47;3.73;;;;;;;;;;5022647;28;20204;-73
2023/10/06 08:34:39;;;;;;;2.97;2.77;;;;;;;;;;5028430;28;20204;-71
2023/10/06 08:37:10;;;;;;;3.80;3.50;;;;;;;;;;5013281;28;20367;-72
2023/10/06 08:39:39;;;;;;;4.33;3.93;;;;;;;;;;5013818;28;20216;-72
2023/10/06 08:42:08;;;;;;;3.27;3.03;;;;;;;;;;5016511;28;20209;-72
2023/10/06 08:44:38;;;;;;;3.90;3.50;;;;;;;;;;5018514;28;20204;-72
2023/10/06 08:47:09;;;;;;;4.53;4.20;;;;;;;;;;5017217;28;20220;-72
2023/10/06 08:49:37;;;;;;;8.70;7.70;;;;;;;;;;5027027;28;20254;-71
2023/10/06 08:52:05;;;;;;;6.23;5.67;;;;;;;;;;5017032;28;20212;-72
2023/10/06 08:54:34;;;;;;;7.47;6.30;;;;;;;;;;5023801;28;20203;-72
2023/10/06 08:57:03;;;;;;;12.63;6.53;;;;;;;;;;5020161;28;20269;-71
2023/10/06 08:59:31;;;;;;;11.03;6.77;;;;;;;;;;5016274;28;20197;-71
2023/10/06 09:02:01;;;;;;;11.93;6.63;;;;;;;;;;5011316;28;20208;-72
2023/10/06 09:04:35;;;;;;;7.97;5.03;;;;;;;;;;5015194;28;20223;-71
2023/10/06 09:07:12;;;;;;;11.37;5.90;;;;;;;;;;5017935;28;20235;-71
2023/10/06 09:09:42;;;;;;;8.30;4.70;;;;;;;;;;5018403;28;20204;-69
2023/10/06 09:12:10;;;;;;;11.13;5.27;;;;;;;;;;5015831;28;20205;-68
2023/10/06 09:14:52;;;;;;;3.20;2.60;;;;;;;;;;5020298;28;20232;-66
2023/10/06 09:17:31;;;;;;;5.07;3.67;;;;;;;;;;5023308;28;20200;-66
2023/10/06 09:19:59;;;;;;;7.80;4.57;;;;;;;;;;5016418;28;20272;-67
2023/10/06 09:22:36;;;;;;;11.30;4.97;;;;;;;;;;5016346;28;20541;-67
2023/10/06 09:25:05;;;;;;;9.65;5.28;;;;;;;;;;5020349;28;20243;-67
2023/10/06 09:27:37;;;;;;;7.47;5.13;;;;;;;;;;5019927;28;20213;-66
2023/10/06 09:30:07;;;;;;;10.07;4.35;;;;;;;;;;5019820;28;20211;-67
2023/10/06 09:32:35;;;;;;;8.15;4.82;;;;;;;;;;5024554;28;20204;-67
2023/10/06 09:35:17;;;;;;;7.65;4.07;;;;;;;;;;5023028;28;20196;-67
2023/10/06 09:37:46;;;;;;;7.13;4.45;;;;;;;;;;5020132;28;20251;-67
2023/10/06 09:40:20;;;;;;;6.07;4.10;;;;;;;;;;5024162;28;20203;-67
2023/10/06 09:42:50;;;;;;;6.43;4.20;;;;;;;;;;5021292;28;20205;-67
2023/10/06 09:45:20;;;;;;;8.00;4.05;;;;;;;;;;5022836;28;20204;-68
2023/10/06 09:47:51;;;;;;;5.50;3.97;;;;;;;;;;5026669;28;20203;-68
2023/10/06 09:50:22;;;;;;;5.95;3.53;;;;;;;;;;5018480;28;20239;-67
2023/10/06 09:52:51;;;;;;;6.15;3.45;;;;;;;;;;5021459;28;20197;-67
2023/10/06 09:55:19;;;;;;;7.03;3.95;;;;;;;;;;5022586;28;20286;-67
2023/10/06 09:57:48;;;;;;;7.97;4.00;;;;;;;;;;5017867;28;20205;-66
2023/10/06 10:00:17;;;;;;;5.93;4.13;;;;;;;;;;5024630;28;20204;-67
2023/10/06 10:02:46;;;;;;;9.13;4.00;;;;;;;;;;5017484;28;20209;-68
2023/10/06 10:05:15;;;;;;;9.63;3.80;;;;;;;;;;5019744;28;20354;-66
2023/10/06 10:07:42;;;;;;;8.95;3.65;;;;;;;;;;5021990;28;20473;-67
2023/10/06 10:10:12;;;;;;;7.13;3.40;;;;;;;;;;5022278;28;20231;-65
2023/10/06 10:12:52;;;;;;;5.95;3.25;;;;;;;;;;5022677;28;20227;-65
2023/10/06 10:15:24;;;;;;;7.50;3.47;;;;;;;;;;5018727;28;20201;-65
2023/10/06 10:17:54;;;;;;;5.20;3.28;;;;;;;;;;5021476;28;20223;-65
2023/10/06 10:20:25;;;;;;;4.60;3.13;;;;;;;;;;5021702;28;20299;-65
2023/10/06 10:22:53;;;;;;;5.07;2.90;;;;;;;;;;5025732;28;20208;-66
2023/10/06 10:25:20;;;;;;;8.15;3.20;;;;;;;;;;5024249;28;20288;-65
2023/10/06 10:28:03;;;;;;;7.35;3.08;;;;;;;;;;5018513;28;20200;-65
2023/10/06 10:30:46;;;;;;;5.32;2.67;;;;;;;;;;5024453;28;20365;-66
2023/10/06 10:33:21;;;;;;;8.93;3.80;;;;;;;;;;5014275;28;20220;-64
2023/10/06 10:36:03;;;;;;;5.68;3.17;;;;;;;;;;5014785;28;20211;-64
2023/10/06 10:38:34;;;;;;;5.78;2.90;;;;;;;;;;5014785;28;20512;-64
2023/10/06 10:41:02;;;;;;;6.18;2.72;;;;;;;;;;5016314;28;20209;-65
2023/10/06 10:43:29;;;;;;;8.55;3.13;;;;;;;;;;5021397;28;20207;-64
2023/10/06 10:45:57;;;;;;;4.88;2.78;;;;;;;;;;5016445;28;20223;-64
2023/10/06 10:48:33;;;;;;;9.38;2.92;;;;;;;;;;5020967;28;20237;-64
2023/10/06 10:51:01;;;;;;;9.98;2.72;;;;;;;;;;5023397;28;20294;-63
2023/10/06 10:53:34;;;;;;;5.80;2.35;;;;;;;;;;5018381;28;20219;-66
2023/10/06 10:56:02;;;;;;;6.70;2.70;;;;;;;;;;5014116;28;20199;-64
2023/10/06 10:58:48;;;;;;;5.18;2.60;;;;;;;;;;5014010;28;20214;-66
2023/10/06 11:01:27;;;;;;;9.52;2.75;;;;;;;;;;5017407;28;20211;-63
2023/10/06 11:04:13;;;;;;;5.07;2.75;;;;;;;;;;5011952;28;20205;-64
2023/10/06 11:06:40;;;;;;;4.45;2.30;;;;;;;;;;5015921;28;21452;-63
2023/10/06 11:09:25;;;;;;;6.63;2.70;;;;;;;;;;5021536;28;20205;-63
2023/10/06 11:11:53;;;;;;;7.47;3.22;;;;;;;;;;5014667;28;20207;-64
2023/10/06 11:14:22;;;;;;;5.28;2.67;;;;;;;;;;5015042;28;20205;-65
2023/10/06 11:16:49;;;;;;;4.47;2.78;;;;;;;;;;5021345;28;20201;-65
2023/10/06 11:19:18;;;;;;;5.53;2.45;;;;;;;;;;5018752;28;20262;-62
2023/10/06 11:21:47;;;;;;;5.43;2.78;;;;;;;;;;5020367;28;20215;-62
2023/10/06 11:24:24;;;;;;;7.05;3.00;;;;;;;;;;5013186;28;20255;-62
2023/10/06 11:26:52;;;;;;;4.97;3.15;;;;;;;;;;5020394;28;20234;-63
2023/10/06 11:29:28;;;;;;;7.95;3.25;;;;;;;;;;5021571;28;20204;-62
2023/10/06 11:31:55;;;;;;;5.82;2.72;;;;;;;;;;5018707;28;20251;-63
2023/10/06 11:34:24;;;;;;;7.72;3.83;;;;;;;;;;5018900;28;20209;-63
2023/10/06 11:36:53;;;;;;;9.38;3.45;;;;;;;;;;5020874;28;20296;-62
2023/10/06 11:39:24;;;;;;;7.80;3.63;;;;;;;;;;5013815;28;20200;-64
2023/10/06 11:41:52;;;;;;;9.07;3.72;;;;;;;;;;5018027;28;20201;-63
2023/10/06 11:44:20;;;;;;;10.13;4.10;;;;;;;;;;5014102;28;20211;-64
2023/10/06 11:46:56;;;;;;;8.00;3.95;;;;;;;;;;5016886;28;20221;-62
2023/10/06 11:49:23;;;;;;;7.28;3.97;;;;;;;;;;5011950;28;20236;-63
2023/10/06 11:51:51;;;;;;;10.45;3.88;;;;;;;;;;5022065;28;20201;-62
2023/10/06 11:54:19;;;;;;;6.93;3.70;;;;;;;;;;5014613;28;20201;-62
2023/10/06 11:56:51;;;;;;;6.53;3.58;;;;;;;;;;5018563;28;20197;-62
2023/10/06 11:59:22;;;;;;;7.35;3.30;;;;;;;;;;5021978;28;20243;-62
2023/10/06 12:01:49;;;;;;;9.18;4.20;;;;;;;;;;5019543;28;20262;-62
2023/10/06 12:04:30;;;;;;;8.32;4.30;;;;;;;;;;5011645;28;20211;-62
2023/10/06 12:06:58;;;;;;;9.43;4.25;;;;;;;;;;5017273;28;20235;-63
2023/10/06 12:09:29;;;;;;;8.05;4.22;;;;;;;;;;5017549;28;20201;-62
2023/10/06 12:11:59;;;;;;;6.18;4.22;;;;;;;;;;5019393;28;20238;-62
2023/10/06 12:14:26;;;;;;;11.38;4.93;;;;;;;;;;5016281;28;20245;-61
2023/10/06 12:16:54;;;;;;;8.63;4.47;;;;;;;;;;5018106;28;20211;-63
2023/10/06 12:19:22;;;;;;;10.10;4.22;;;;;;;;;;5019162;28;20251;-62
2023/10/06 12:21:49;;;;;;;8.75;4.63;;;;;;;;;;5012084;28;20197;-61
2023/10/06 12:24:16;;;;;;;8.25;4.68;;;;;;;;;;5014775;28;20218;-63
2023/10/06 12:26:46;;;;;;;9.38;4.63;;;;;;;;;;5013990;28;20228;-61
2023/10/06 12:29:16;;;;;;;7.03;4.35;;;;;;;;;;5021702;28;20218;-61
2023/10/06 12:31:44;;;;;;;8.38;4.50;;;;;;;;;;5023027;28;20208;-62
2023/10/06 12:34:15;;;;;;;9.23;4.25;;;;;;;;;;5021488;28;20222;-63
2023/10/06 12:36:46;;;;;;;8.52;4.13;;;;;;;;;;5018747;28;20196;-63
2023/10/06 12:39:16;;;;;;;8.48;4.32;;;;;;;;;;5018986;28;20215;-62
2023/10/06 12:41:46;;;;;;;6.68;3.90;;;;;;;;;;5021077;28;20212;-63
2023/10/06 12:44:14;;;;;;;7.70;4.15;;;;;;;;;;5017123;28;20296;-62
2023/10/06 12:46:42;;;;;;;8.18;4.18;;;;;;;;;;5010731;28;20217;-61
2023/10/06 12:49:09;;;;;;;8.98;4.65;;;;;;;;;;5016821;28;20242;-62
2023/10/06 12:51:36;;;;;;;7.65;4.18;;;;;;;;;;5019701;28;20208;-62
2023/10/06 12:54:06;;;;;;;6.88;3.72;;;;;;;;;;5017235;28;20308;-62
2023/10/06 12:56:34;;;;;;;10.25;4.03;;;;;;;;;;5015153;28;20204;-62
2023/10/06 12:59:01;;;;;;;7.50;4.10;;;;;;;;;;5014336;28;20215;-63
2023/10/06 13:01:31;;;;;;;7.22;3.80;;;;;;;;;;5016646;28;20218;-62
2023/10/06 13:03:59;;;;;;;8.82;4.20;;;;;;;;;;5014869;28;20208;-61
2023/10/06 13:06:26;;;;;;;8.23;3.97;;;;;;;;;;5016200;28;20204;-62
2023/10/06 13:08:53;;;;;;;8.50;4.00;;;;;;;;;;5022853;28;20197;-63
2023/10/06 13:11:21;;;;;;;9.15;4.20;;;;;;;;;;5017081;28;20208;-63
2023/10/06 13:13:49;;;;;;;6.50;3.90;;;;;;;;;;5011578;28;20205;-62
2023/10/06 13:16:17;;;;;;;7.22;4.25;;;;;;;;;;5013876;28;20239;-62
2023/10/06 13:18:46;;;;;;;8.23;4.25;;;;;;;;;;5012345;28;20205;-63
2023/10/06 13:21:13;;;;;;;9.90;4.30;;;;;;;;;;5022473;28;20290;-62
2023/10/06 13:23:42;;;;;;;6.95;3.90;;;;;;;;;;5018543;28;20215;-64
2023/10/06 13:26:11;;;;;;;6.93;4.15;;;;;;;;;;5016431;28;20207;-62
2023/10/06 13:28:40;;;;;;;5.90;4.07;;;;;;;;;;5014761;28;20232;-63
2023/10/06 13:31:09;;;;;;;9.00;4.60;;;;;;;;;;5022664;28;20224;-62
2023/10/06 13:33:37;;;;;;;8.20;4.15;;;;;;;;;;5018672;28;20193;-62
2023/10/06 13:36:08;;;;;;;8.57;4.25;;;;;;;;;;5016383;28;20207;-64
2023/10/06 13:38:35;;;;;;;7.50;3.78;;;;;;;;;;5012265;28;20205;-64
2023/10/06 13:41:04;;;;;;;7.43;4.25;;;;;;;;;;5026830;28;20204;-63
2023/10/06 13:43:31;;;;;;;9.68;4.40;;;;;;;;;;5010909;28;20205;-62
2023/10/06 13:45:59;;;;;;;9.95;4.63;;;;;;;;;;5015210;28;20204;-63
2023/10/06 13:48:28;;;;;;;8.00;4.15;;;;;;;;;;5016477;28;20247;-64
2023/10/06 13:50:58;;;;;;;9.90;4.40;;;;;;;;;;5020883;28;20208;-62
2023/10/06 13:53:27;;;;;;;9.27;4.20;;;;;;;;;;5020777;28;20216;-67
2023/10/06 13:55:58;;;;;;;8.60;4.18;;;;;;;;;;5010277;28;20208;-67
2023/10/06 13:58:26;;;;;;;8.05;4.15;;;;;;;;;;5019153;28;20267;-68
2023/10/06 14:00:55;;;;;;;7.85;4.50;;;;;;;;;;5018963;28;20204;-68
2023/10/06 14:03:23;;;;;;;8.27;4.18;;;;;;;;;;5014978;28;20288;-67
2023/10/06 14:05:52;;;;;;;8.13;4.50;;;;;;;;;;5020385;28;20294;-67
2023/10/06 14:08:20;;;;;;;9.48;4.75;;;;;;;;;;5014829;28;20227;-67
2023/10/06 14:10:50;;;;;;;9.55;4.20;;;;;;;;;;5015761;28;20201;-66
2023/10/06 14:13:23;;;;;;;9.55;4.82;;;;;;;;;;5016658;28;20208;-67
2023/10/06 14:15:54;;;;;;;10.85;4.90;;;;;;;;;;5016558;28;20228;-67
2023/10/06 14:18:24;;;;;;;7.05;4.57;;;;;;;;;;5016138;28;20192;-67
2023/10/06 14:20:52;;;;;;;8.50;4.90;;;;;;;;;;5015252;28;20206;-66
2023/10/06 14:23:23;;;;;;;8.40;4.53;;;;;;;;;;5018030;28;20215;-67
2023/10/06 14:25:54;;;;;;;7.70;4.68;;;;;;;;;;5014866;28;20224;-68
2023/10/06 14:28:23;;;;;;;10.70;5.05;;;;;;;;;;5014746;28;20220;-67
2023/10/06 14:30:53;;;;;;;11.05;5.20;;;;;;;;;;5019479;28;20200;-67
2023/10/06 14:33:28;;;;;;;8.38;4.80;;;;;;;;;;5009208;28;20209;-67
2023/10/06 14:36:20;;;;;;;7.40;4.40;;;;;;;;;;5015228;28;20204;-67
2023/10/06 14:47:02;;;;;;;6.55;4.45;;;;;;;;;;5016249;28;20227;-66
2023/10/06 14:49:29;;;;;;;10.60;4.75;;;;;;;;;;5018936;28;20317;-67
2023/10/06 14:51:58;;;;;;;9.10;5.18;;;;;;;;;;5012678;28;20210;-67
2023/10/06 14:54:30;;;;;;;8.73;5.00;;;;;;;;;;5015058;28;20207;-67
2023/10/06 14:56:59;;;;;;;8.88;4.47;;;;;;;;;;5017246;28;20421;-67
2023/10/06 14:59:31;;;;;;;7.82;4.85;;;;;;;;;;5018625;28;20215;-67
2023/10/06 15:01:58;;;;;;;9.50;4.70;;;;;;;;;;5014641;28;20239;-67
2023/10/06 15:04:25;;;;;;;6.00;4.40;;;;;;;;;;5019732;28;20208;-67